Terminal Aerodrome Forecast
Issued by NWS St Louis, MO

Home | Current Version | Previous Version | Text Only | Print | Product List | Glossary On
Versions: 1 2 3 4 5 6 7 8 9 10 11 12 13 14 15 16 17 18 19 20 21 22 23 24 25 26 27 28 29 30
301
FTUS43 KLSX 221931 CCA
TAFSTL
TAF COR
KSTL 221931Z 2219/2324 36012G20KT P6SM VCSH OVC012
      TEMPO 2219/2222 BKN008
     FM230500 33014KT P6SM OVC015
     FM231800 32009KT P6SM BKN025=

USA.gov is the U.S. government's official web portal to all federal, state and local government web resources and services.